Time;durP1;ratioP1;P1;durP2;ratioP2;P2;SDS_P1;SDS_P2;PMS_P1;PMS_P2;Temp;Humidity;BMP_temperature;BMP_pressure;BME280_temperature;BME280_humidity;BME280_pressure;Samples;Min_cycle;Max_cycle;Signal;HPM_P1;HPM_P2
2023/03/30 00:02:06;;;;;;;1.48;0.90;;;10.80;99.90;;;;;;5108666;28;20056;-58
2023/03/30 00:04:36;;;;;;;1.55;0.82;;;10.70;99.90;;;;;;5099222;28;20047;-60
2023/03/30 00:07:04;;;;;;;0.90;0.70;;;10.70;99.90;;;;;;5108466;28;20190;-56
2023/03/30 00:09:32;;;;;;;2.63;0.50;;;11.60;99.90;;;;;;5108522;28;20039;-57
2023/03/30 00:12:02;;;;;;;0.63;0.47;;;10.60;99.90;;;;;;5107930;28;20055;-57
2023/03/30 00:14:30;;;;;;;2.03;0.70;;;10.50;99.90;;;;;;5108731;28;20050;-56
2023/03/30 00:16:57;;;;;;;0.70;0.50;;;10.50;99.90;;;;;;5104855;28;20479;-57
2023/03/30 00:19:25;;;;;;;1.33;0.63;;;10.50;99.90;;;;;;5103333;28;20043;-59
2023/03/30 00:21:53;;;;;;;0.98;0.93;;;10.40;99.90;;;;;;5109309;28;20044;-57
2023/03/30 00:24:24;;;;;;;2.75;1.00;;;10.50;99.90;;;;;;5093195;28;20051;-55
2023/03/30 00:26:51;;;;;;;1.38;1.02;;;10.50;99.90;;;;;;5073834;28;20073;-56
2023/03/30 00:29:19;;;;;;;2.30;1.40;;;10.40;99.90;;;;;;5108340;28;20050;-57
2023/03/30 00:31:48;;;;;;;2.90;1.48;;;10.50;99.90;;;;;;5090300;28;20054;-57
2023/03/30 00:34:16;;;;;;;2.55;2.15;;;10.50;99.90;;;;;;5075993;28;20048;-56
2023/03/30 00:36:45;;;;;;;4.57;2.85;;;;;;;;;;5106559;28;20051;-56
2023/03/30 00:39:13;;;;;;;4.95;3.10;;;10.50;99.90;;;;;;5090556;28;20042;-54
2023/03/30 00:41:41;;;;;;;5.97;2.97;;;10.60;99.90;;;;;;5108609;28;20055;-56
2023/03/30 00:44:47;;;;;;;3.75;2.70;;;10.60;99.90;;;;;;5090553;28;20039;-58
2023/03/30 00:47:16;;;;;;;3.90;2.47;;;10.70;99.90;;;;;;5088884;28;20036;-62
2023/03/30 00:49:45;;;;;;;7.85;2.55;;;10.70;99.90;;;;;;5097629;28;20051;-57
2023/03/30 00:52:18;;;;;;;2.60;2.08;;;10.70;99.90;;;;;;5108762;28;20039;-61
2023/03/30 00:54:46;;;;;;;4.63;2.20;;;10.70;99.90;;;;;;5107845;28;20058;-55
2023/03/30 00:57:14;;;;;;;5.45;1.77;;;10.70;99.90;;;;;;5108344;28;20618;-60
2023/03/30 00:59:42;;;;;;;6.05;1.50;;;10.70;99.90;;;;;;5107915;28;20403;-60
2023/03/30 01:02:10;;;;;;;8.90;1.88;;;10.70;99.90;;;;;;5087892;28;20043;-64
2023/03/30 01:04:38;;;;;;;5.82;1.70;;;10.70;99.90;;;;;;5104124;28;20058;-59
2023/03/30 01:07:11;;;;;;;6.65;2.33;;;10.70;99.90;;;;;;5058411;28;20055;-60
2023/03/30 01:09:40;;;;;;;4.85;1.40;;;10.60;99.90;;;;;;5089957;28;20050;-60
2023/03/30 01:12:09;;;;;;;7.72;1.20;;;10.60;99.90;;;;;;5089395;28;20051;-61
2023/03/30 01:14:37;;;;;;;7.25;1.27;;;10.60;99.90;;;;;;5089708;28;20498;-63
2023/03/30 01:17:15;;;;;;;6.40;1.10;;;10.60;99.90;;;;;;5105133;28;20040;-57
2023/03/30 01:19:48;;;;;;;10.98;1.42;;;10.60;99.90;;;;;;5096172;28;20048;-61
2023/03/30 01:22:57;;;;;;;7.03;1.00;;;10.60;99.90;;;;;;5093159;28;20052;-61
2023/03/30 01:25:47;;;;;;;10.47;1.23;;;10.60;99.90;;;;;;5060401;28;20052;-59
2023/03/30 01:28:50;;;;;;;9.13;1.13;;;10.60;99.90;;;;;;5074649;28;20052;-59
2023/03/30 01:31:55;;;;;;;2.97;0.80;;;10.60;99.90;;;;;;5106301;28;20078;-60
2023/03/30 01:34:26;;;;;;;9.65;1.98;;;10.60;99.90;;;;;;5089628;28;20040;-60
2023/03/30 01:37:29;;;;;;;6.13;0.80;;;10.60;99.90;;;;;;5106342;28;20048;-59
2023/03/30 01:40:03;;;;;;;4.45;0.73;;;10.50;99.90;;;;;;5071985;28;20061;-58
2023/03/30 01:42:40;;;;;;;3.20;0.77;;;10.50;99.90;;;;;;5110637;28;20047;-56
2023/03/30 01:45:24;;;;;;;5.80;0.90;;;10.50;99.90;;;;;;5107394;28;20387;-57
2023/03/30 01:48:12;;;;;;;3.95;0.93;;;10.50;99.90;;;;;;5091936;28;20040;-56
2023/03/30 01:50:51;;;;;;;4.57;1.00;;;10.50;99.90;;;;;;5115302;28;20043;-57
2023/03/30 01:53:31;;;;;;;3.85;0.47;;;10.40;99.90;;;;;;5114753;28;20046;-62
2023/03/30 01:56:08;;;;;;;2.63;0.32;;;10.40;99.90;;;;;;5079809;28;20390;-57
2023/03/30 01:58:55;;;;;;;5.05;0.40;;;10.40;99.90;;;;;;5114596;28;20125;-58
2023/03/30 02:01:26;;;;;;;3.92;0.82;;;10.40;99.90;;;;;;5115021;28;20040;-56
2023/03/30 02:03:57;;;;;;;2.95;0.45;;;10.40;99.90;;;;;;5115216;28;20044;-59
2023/03/30 02:06:37;;;;;;;3.28;0.50;;;10.30;99.90;;;;;;5114272;28;20052;-59
2023/03/30 02:09:15;;;;;;;3.22;0.28;;;10.30;99.90;;;;;;5113325;28;20054;-56
2023/03/30 02:11:52;;;;;;;5.15;0.50;;;10.30;99.90;;;;;;5113433;28;20066;-55
2023/03/30 02:14:26;;;;;;;2.92;0.20;;;10.30;99.90;;;;;;5095930;28;20055;-62
2023/03/30 02:16:59;;;;;;;6.40;1.38;;;10.30;99.90;;;;;;5095661;28;20524;-54
2023/03/30 02:19:27;;;;;;;3.78;0.80;;;10.30;99.90;;;;;;5096318;28;20055;-56
2023/03/30 02:21:55;;;;;;;3.55;0.40;;;10.30;99.90;;;;;;5111277;28;20054;-58
2023/03/30 02:24:28;;;;;;;2.38;0.40;;;10.30;99.90;;;;;;5114842;28;20044;-58
2023/03/30 02:26:58;;;;;;;1.48;0.20;;;10.30;99.90;;;;;;5112451;28;20047;-56
2023/03/30 02:29:27;;;;;;;1.90;0.40;;;10.30;99.90;;;;;;5114169;28;20043;-56
2023/03/30 02:31:58;;;;;;;2.30;0.63;;;10.10;99.90;;;;;;5112762;28;20048;-55
2023/03/30 02:34:39;;;;;;;0.73;0.22;;;10.10;99.90;;;;;;5095430;28;20047;-56
2023/03/30 02:37:23;;;;;;;1.85;0.30;;;10.10;99.90;;;;;;5105458;28;20047;-55
2023/03/30 02:40:28;;;;;;;2.08;0.68;;;10.00;99.90;;;;;;5103825;28;20040;-55
2023/03/30 02:43:36;;;;;;;3.70;0.30;;;10.00;99.90;;;;;;5099694;28;20040;-56
2023/03/30 02:46:25;;;;;;;2.55;0.60;;;9.90;99.90;;;;;;5087732;28;20055;-55
2023/03/30 02:49:15;;;;;;;1.80;0.60;;;9.90;99.90;;;;;;5075638;28;20039;-57
2023/03/30 02:51:55;;;;;;;4.22;0.57;;;9.80;99.90;;;;;;5095959;28;20044;-59
2023/03/30 02:54:53;;;;;;;5.00;0.50;;;9.80;99.90;;;;;;5094205;28;20036;-58
2023/03/30 02:58:29;;;;;;;5.35;0.38;;;9.80;99.90;;;;;;5089995;28;20059;-61
2023/03/30 03:01:12;;;;;;;2.83;0.50;;;9.70;99.90;;;;;;5058034;28;20559;-55
2023/03/30 03:03:48;;;;;;;4.07;0.52;;;9.70;99.90;;;;;;5018753;28;20053;-57
2023/03/30 03:06:19;;;;;;;7.43;0.45;;;9.60;99.90;;;;;;5065767;28;20051;-55
2023/03/30 03:08:53;;;;;;;3.80;0.55;;;9.60;99.90;;;;;;5107908;28;20036;-65
2023/03/30 03:11:27;;;;;;;6.25;0.68;;;9.60;99.90;;;;;;5094444;28;20046;-62
2023/03/30 03:13:58;;;;;;;4.35;2.35;;;9.60;99.90;;;;;;5109887;28;20407;-57
2023/03/30 03:16:27;;;;;;;6.15;0.73;;;9.60;99.90;;;;;;5112304;28;20063;-65
2023/03/30 03:19:15;;;;;;;3.40;0.47;;;9.60;99.90;;;;;;5110933;27;20522;-59
2023/03/30 03:21:46;;;;;;;5.35;1.10;;;9.60;99.90;;;;;;5107664;28;20360;-57
2023/03/30 03:24:16;;;;;;;4.15;0.90;;;9.60;99.90;;;;;;5111958;28;20063;-60
2023/03/30 03:27:02;;;;;;;3.60;0.52;;;9.50;99.90;;;;;;5113051;28;20047;-65
2023/03/30 03:29:39;;;;;;;7.13;0.70;;;9.50;99.90;;;;;;5093599;28;20410;-59
2023/03/30 03:32:09;;;;;;;4.07;0.50;;;9.50;99.90;;;;;;5111202;28;20055;-60
2023/03/30 03:34:45;;;;;;;3.92;0.60;;;9.50;99.90;;;;;;5093919;28;20048;-58
2023/03/30 03:37:13;;;;;;;4.90;0.50;;;9.50;99.90;;;;;;5094461;28;20083;-65
2023/03/30 03:39:43;;;;;;;8.32;0.75;;;9.50;99.90;;;;;;5078841;28;20044;-63
2023/03/30 03:42:13;;;;;;;5.28;0.52;;;9.40;99.90;;;;;;5094904;28;20034;-64
2023/03/30 03:44:55;;;;;;;16.05;1.88;;;9.50;99.90;;;;;;5097853;28;20055;-65
2023/03/30 03:47:23;;;;;;;6.90;1.20;;;9.40;99.90;;;;;;5094079;28;20044;-63
2023/03/30 03:49:51;;;;;;;6.65;1.02;;;9.40;99.90;;;;;;5113226;28;20040;-60
2023/03/30 03:52:18;;;;;;;5.07;0.70;;;9.40;99.90;;;;;;5083703;28;20087;-63
2023/03/30 03:54:46;;;;;;;6.57;0.98;;;9.40;99.90;;;;;;5113153;28;20491;-62
2023/03/30 03:57:14;;;;;;;5.65;0.70;;;9.40;99.90;;;;;;5094971;28;20039;-61
2023/03/30 03:59:42;;;;;;;7.35;0.60;;;9.40;99.90;;;;;;5112188;28;20039;-63
2023/03/30 04:02:10;;;;;;;9.90;1.15;;;9.40;99.90;;;;;;5078470;28;20039;-59
2023/03/30 04:04:38;;;;;;;8.77;0.95;;;9.40;99.90;;;;;;5111753;28;20051;-56
2023/03/30 04:07:05;;;;;;;4.03;0.88;;;9.40;99.90;;;;;;5112790;28;20055;-57
2023/03/30 04:09:33;;;;;;;7.90;0.95;;;9.40;99.90;;;;;;5096588;28;20063;-58
2023/03/30 04:12:19;;;;;;;5.30;1.23;;;9.40;99.90;;;;;;5109992;28;20040;-59
2023/03/30 04:15:06;;;;;;;5.72;0.77;;;9.40;99.90;;;;;;5092282;28;20055;-56
2023/03/30 04:17:56;;;;;;;8.38;0.90;;;9.50;99.90;;;;;;5088598;28;20043;-55
2023/03/30 04:20:43;;;;;;;12.20;2.00;;;9.50;99.90;;;;;;5097559;28;20063;-55
2023/03/30 04:23:24;;;;;;;4.80;1.27;;;9.50;99.90;;;;;;5111110;28;20046;-57
2023/03/30 04:26:18;;;;;;;6.68;0.80;;;9.50;99.90;;;;;;5088169;28;20537;-56
2023/03/30 04:28:48;;;;;;;10.02;1.00;;;9.50;99.90;;;;;;5110881;28;20044;-56
2023/03/30 04:31:34;;;;;;;12.38;1.10;;;9.50;99.90;;;;;;5112569;28;20482;-62
2023/03/30 04:34:34;;;;;;;4.90;0.75;;;9.50;99.90;;;;;;5060393;28;20075;-60
2023/03/30 04:37:09;;;;;;;11.27;1.05;;;9.50;99.90;;;;;;5093311;28;20089;-56
2023/03/30 04:40:08;;;;;;;4.57;0.75;;;9.50;99.90;;;;;;5092176;28;20040;-57
2023/03/30 04:42:53;;;;;;;2.55;0.40;;;9.50;99.90;;;;;;5112223;28;20043;-58
2023/03/30 04:45:53;;;;;;;9.93;2.20;;;9.50;99.90;;;;;;5092970;28;20040;-57
2023/03/30 04:48:30;;;;;;;10.00;0.90;;;9.50;99.90;;;;;;5105551;28;20036;-56
2023/03/30 04:51:10;;;;;;;;;;;9.50;99.90;;;;;;5105864;28;20047;-56
2023/03/30 04:53:38;;;;;;;6.15;1.08;;;9.50;99.90;;;;;;5101503;28;19924;-59
2023/03/30 04:56:27;;;;;;;12.93;1.30;;;9.50;99.90;;;;;;5106137;28;20038;-56
2023/03/30 04:59:21;;;;;;;7.20;1.25;;;9.50;99.90;;;;;;5089424;28;20039;-56
2023/03/30 05:02:10;;;;;;;8.40;1.40;;;9.50;99.90;;;;;;5096192;28;20047;-58
2023/03/30 05:04:56;;;;;;;22.08;1.48;;;9.40;99.90;;;;;;5104225;28;20043;-55
2023/03/30 05:07:43;;;;;;;11.50;1.10;;;9.40;99.90;;;;;;5101728;28;20047;-56
2023/03/30 05:10:37;;;;;;;12.20;0.98;;;9.40;99.90;;;;;;5096533;28;20040;-59
2023/03/30 05:13:30;;;;;;;11.95;1.30;;;9.50;99.90;;;;;;5092388;28;20055;-57
2023/03/30 05:16:05;;;;;;;17.00;2.17;;;9.50;99.90;;;;;;5103053;28;20042;-57
2023/03/30 05:19:02;;;;;;;13.95;2.45;;;9.50;99.90;;;;;;5081627;28;20429;-57
2023/03/30 05:21:49;;;;;;;17.42;2.17;;;9.50;99.90;;;;;;5100348;28;20039;-57
2023/03/30 05:24:35;;;;;;;13.00;1.42;;;9.50;99.90;;;;;;5107833;28;20050;-59
2023/03/30 05:27:13;;;;;;;8.73;2.08;;;9.50;99.90;;;;;;5090638;28;20050;-58
2023/03/30 05:29:55;;;;;;;10.15;1.42;;;9.50;99.90;;;;;;5085225;28;20040;-61
2023/03/30 05:32:58;;;;;;;10.85;1.50;;;9.50;99.90;;;;;;5087694;28;20050;-57
2023/03/30 05:35:38;;;;;;;14.57;1.88;;;9.50;99.90;;;;;;5106541;28;20052;-56
2023/03/30 05:38:35;;;;;;;;;;;9.60;99.90;;;;;;5030437;28;20050;-58
2023/03/30 05:41:21;;;;;;;15.00;1.67;;;9.60;99.90;;;;;;5090773;28;19919;-56
2023/03/30 05:44:09;;;;;;;10.00;1.42;;;9.50;99.90;;;;;;5077429;28;20065;-57
2023/03/30 05:46:55;;;;;;;15.30;2.50;;;9.40;99.90;;;;;;5107491;28;20423;-56
2023/03/30 05:49:42;;;;;;;22.40;2.88;;;9.40;99.90;;;;;;5110725;28;20410;-57
2023/03/30 05:52:20;;;;;;;13.63;1.77;;;9.30;99.90;;;;;;5088652;28;20043;-58
2023/03/30 05:55:22;;;;;;;14.75;1.63;;;9.30;99.90;;;;;;5084910;27;20044;-58
2023/03/30 05:58:10;;;;;;;11.10;1.63;;;9.20;99.90;;;;;;5061407;28;20067;-61
2023/03/30 06:00:58;;;;;;;16.60;1.80;;;9.10;99.90;;;;;;5080850;28;20052;-62
2023/03/30 06:03:34;;;;;;;19.00;2.60;;;9.10;99.90;;;;;;5077909;28;20043;-62
2023/03/30 06:06:04;;;;;;;21.75;2.28;;;9.00;99.90;;;;;;5071163;28;20048;-62
2023/03/30 06:08:32;;;;;;;14.75;1.55;;;9.00;99.90;;;;;;5098956;28;20044;-62
2023/03/30 06:11:03;;;;;;;13.52;2.55;;;9.00;99.90;;;;;;5088486;28;20041;-63
2023/03/30 06:13:43;;;;;;;;;;;9.00;99.90;;;;;;5084862;28;20568;-62
2023/03/30 06:16:11;;;;;;;11.15;1.73;;;9.00;99.90;;;;;;5077789;28;20371;-57
2023/03/30 06:18:38;;;;;;;24.70;3.00;;;8.90;99.90;;;;;;5085521;28;20144;-60
2023/03/30 06:21:12;;;;;;;17.02;3.13;;;9.00;99.90;;;;;;5093293;28;20051;-62
2023/03/30 06:24:09;;;;;;;11.75;1.73;;;8.90;99.90;;;;;;5074419;28;20052;-62
2023/03/30 06:26:40;;;;;;;;;;;8.90;99.90;;;;;;5091275;28;20118;-58
2023/03/30 06:29:07;;;;;;;19.23;2.83;;;8.90;99.90;;;;;;5089116;28;19927;-57
2023/03/30 06:31:36;;;;;;;15.35;2.03;;;9.00;99.90;;;;;;5087436;28;20051;-57
2023/03/30 06:34:30;;;;;;;16.50;2.83;;;8.90;99.90;;;;;;5077792;28;20054;-62
2023/03/30 06:37:00;;;;;;;16.20;1.83;;;9.00;99.90;;;;;;5082057;28;20055;-58
2023/03/30 06:39:28;;;;;;;12.50;1.40;;;9.10;99.90;;;;;;5058393;28;20046;-57
2023/03/30 06:41:56;;;;;;;24.40;3.50;;;9.20;99.90;;;;;;5081081;28;20059;-58
2023/03/30 06:44:57;;;;;;;18.42;2.35;;;9.30;99.90;;;;;;5094594;28;20058;-57
2023/03/30 06:47:25;;;;;;;13.35;1.83;;;9.20;99.90;;;;;;5107884;28;20044;-58
2023/03/30 06:49:52;;;;;;;13.73;1.60;;;9.40;99.90;;;;;;5103573;28;20051;-56
2023/03/30 06:52:43;;;;;;;12.88;2.67;;;9.40;99.90;;;;;;5096685;28;20048;-59
2023/03/30 06:55:11;;;;;;;19.75;2.80;;;9.50;99.90;;;;;;5105285;28;20043;-57
2023/03/30 06:57:39;;;;;;;16.00;2.05;;;9.50;99.90;;;;;;5083337;28;20063;-58
2023/03/30 07:00:14;;;;;;;11.50;1.48;;;9.50;99.90;;;;;;5087627;28;20509;-58
2023/03/30 07:02:42;;;;;;;14.18;2.22;;;9.60;99.90;;;;;;5106792;28;20106;-58
2023/03/30 07:05:23;;;;;;;15.25;3.03;;;9.60;99.90;;;;;;5089982;28;20048;-56
2023/03/30 07:08:18;;;;;;;20.05;2.60;;;9.70;99.90;;;;;;5098272;28;20055;-56
2023/03/30 07:10:51;;;;;;;16.50;1.90;;;9.70;99.90;;;;;;5109212;28;20043;-55
2023/03/30 07:13:27;;;;;;;12.57;1.50;;;9.80;99.90;;;;;;5098229;28;20056;-61
2023/03/30 07:15:55;;;;;;;10.95;1.85;;;9.80;99.90;;;;;;5090379;28;20054;-58
2023/03/30 07:18:23;;;;;;;14.35;2.20;;;9.80;99.90;;;;;;5109979;28;20055;-57
2023/03/30 07:20:52;;;;;;;16.80;2.83;;;9.80;99.90;;;;;;5084649;28;20036;-58
2023/03/30 07:23:26;;;;;;;13.68;1.90;;;9.90;99.90;;;;;;5107787;28;20043;-57
2023/03/30 07:25:54;;;;;;;15.38;1.55;;;10.00;99.90;;;;;;5089988;28;20032;-56
2023/03/30 07:28:33;;;;;;;10.73;1.73;;;10.10;99.90;;;;;;5091815;28;20054;-57
2023/03/30 07:31:06;;;;;;;11.75;1.75;;;10.00;99.90;;;;;;5104551;28;21609;-57
2023/03/30 07:33:36;;;;;;;9.77;1.45;;;10.10;99.90;;;;;;5083300;28;20047;-60
2023/03/30 07:36:07;;;;;;;14.93;2.05;;;10.20;99.90;;;;;;5092253;28;20047;-58
2023/03/30 07:38:36;;;;;;;18.30;1.80;;;10.20;99.90;;;;;;5090656;28;20066;-58
2023/03/30 07:41:11;;;;;;;11.55;1.50;;;10.20;99.90;;;;;;5091799;28;20047;-56
2023/03/30 07:43:40;;;;;;;12.60;1.70;;;10.30;99.90;;;;;;5088612;28;20040;-58
2023/03/30 07:46:10;;;;;;;15.63;2.35;;;10.30;99.90;;;;;;5089819;28;20056;-57
2023/03/30 07:48:41;;;;;;;12.48;1.42;;;10.30;99.90;;;;;;5084622;28;20044;-56
2023/03/30 07:51:12;;;;;;;13.48;2.00;;;10.30;99.90;;;;;;5088043;28;20470;-57
2023/03/30 07:53:52;;;;;;;14.05;1.20;;;10.30;99.90;;;;;;5101399;28;20518;-58
2023/03/30 07:56:27;;;;;;;10.75;1.25;;;10.30;99.90;;;;;;5096648;28;20040;-58
2023/03/30 07:58:58;;;;;;;15.82;1.70;;;10.30;99.90;;;;;;5103514;28;20051;-57
2023/03/30 08:01:32;;;;;;;12.85;1.25;;;10.30;99.90;;;;;;5087301;28;20040;-57
2023/03/30 08:04:12;;;;;;;10.65;2.38;;;10.30;99.90;;;;;;5065519;28;20510;-57
2023/03/30 08:06:41;;;;;;;8.98;1.88;;;10.30;99.90;;;;;;5074666;28;20051;-57
2023/03/30 08:09:27;;;;;;;13.25;1.92;;;10.50;99.90;;;;;;5100567;28;20093;-58
2023/03/30 08:11:56;;;;;;;9.98;1.90;;;10.40;99.90;;;;;;5076080;28;20361;-58
2023/03/30 08:14:26;;;;;;;10.67;1.47;;;10.50;99.90;;;;;;5076839;28;20048;-58
2023/03/30 08:16:55;;;;;;;14.77;1.50;;;10.50;99.90;;;;;;5105222;28;20050;-57
2023/03/30 08:19:23;;;;;;;13.00;1.10;;;10.60;99.90;;;;;;5102521;28;20051;-56
2023/03/30 08:21:51;;;;;;;13.70;1.95;;;10.60;99.90;;;;;;5109074;28;20051;-56
2023/03/30 08:24:19;;;;;;;17.55;2.58;;;10.60;99.90;;;;;;5073174;28;20078;-55
2023/03/30 08:26:46;;;;;;;17.63;2.15;;;10.60;99.90;;;;;;5105414;28;20075;-57
2023/03/30 08:29:15;;;;;;;9.10;1.60;;;10.70;99.90;;;;;;5108289;28;20510;-57
2023/03/30 08:31:44;;;;;;;12.13;1.65;;;10.70;99.90;;;;;;5106138;28;20061;-58
2023/03/30 08:34:12;;;;;;;8.57;1.23;;;10.70;99.90;;;;;;5098482;28;20118;-57
2023/03/30 08:36:40;;;;;;;12.32;2.53;;;10.70;99.90;;;;;;5107561;28;20052;-57
2023/03/30 08:39:09;;;;;;;8.65;1.02;;;10.70;99.90;;;;;;5080225;28;20048;-58
2023/03/30 08:41:42;;;;;;;18.42;1.85;;;10.70;99.90;;;;;;5109043;28;20043;-61
2023/03/30 08:44:36;;;;;;;12.80;1.92;;;10.60;99.90;;;;;;5092622;28;20043;-56
2023/03/30 08:47:08;;;;;;;5.57;1.00;;;10.50;99.90;;;;;;5091268;28;20051;-64
2023/03/30 08:49:43;;;;;;;9.23;0.95;;;10.50;99.90;;;;;;5106761;28;20063;-60
2023/03/30 08:52:22;;;;;;;5.93;0.70;;;10.40;99.90;;;;;;5109078;28;20050;-64
2023/03/30 08:54:51;;;;;;;9.57;1.63;;;10.40;99.90;;;;;;5096033;28;20044;-65
2023/03/30 08:57:22;;;;;;;6.35;0.93;;;10.40;99.90;;;;;;5107677;28;20078;-63
2023/03/30 09:00:16;;;;;;;10.25;2.60;;;10.50;99.90;;;;;;5107717;28;20044;-56
2023/03/30 09:02:48;;;;;;;5.18;1.10;;;10.50;99.90;;;;;;5087980;28;20040;-57
2023/03/30 09:05:27;;;;;;;6.13;0.93;;;10.50;99.90;;;;;;5101421;28;20040;-56
2023/03/30 09:08:21;;;;;;;6.15;0.68;;;10.50;99.90;;;;;;5108441;28;20050;-55
2023/03/30 09:10:57;;;;;;;4.55;0.98;;;10.60;99.90;;;;;;5102949;28;20067;-57
2023/03/30 09:13:31;;;;;;;7.60;1.27;;;10.60;99.90;;;;;;5097156;28;20054;-59
2023/03/30 09:16:17;;;;;;;7.05;1.67;;;10.70;99.90;;;;;;5108858;28;20048;-59
2023/03/30 09:18:51;;;;;;;4.47;1.20;;;10.80;99.90;;;;;;5107148;28;20043;-65
2023/03/30 09:21:23;;;;;;;8.43;1.00;;;10.90;99.90;;;;;;5107592;28;20044;-63
2023/03/30 09:23:57;;;;;;;9.60;2.40;;;11.00;99.90;;;;;;5108091;28;20055;-59
2023/03/30 09:26:34;;;;;;;14.25;3.45;;;11.10;99.90;;;;;;5074849;28;20055;-59
2023/03/30 09:29:12;;;;;;;8.88;0.90;;;11.20;99.90;;;;;;5104242;28;20044;-61
2023/03/30 09:31:50;;;;;;;8.70;1.90;;;11.30;99.90;;;;;;5087988;28;20055;-59
2023/03/30 09:34:33;;;;;;;6.93;1.10;;;11.50;99.90;;;;;;5098083;28;20837;-56
2023/03/30 09:37:10;;;;;;;4.07;0.95;;;11.50;99.90;;;;;;5090002;28;20052;-58
2023/03/30 09:39:40;;;;;;;3.67;0.88;;;11.60;99.90;;;;;;5090226;28;20039;-57
2023/03/30 09:42:18;;;;;;;7.95;1.35;;;11.60;99.90;;;;;;5100253;28;20059;-57
2023/03/30 09:44:57;;;;;;;8.13;1.13;;;11.50;99.90;;;;;;5096603;28;20450;-56
2023/03/30 09:47:28;;;;;;;3.70;1.00;;;11.50;99.90;;;;;;5069633;28;20036;-57
2023/03/30 09:50:16;;;;;;;3.08;0.80;;;11.50;99.90;;;;;;5093118;28;20046;-60
2023/03/30 09:53:00;;;;;;;2.55;0.50;;;11.60;99.90;;;;;;5091394;28;20047;-57
2023/03/30 09:55:31;;;;;;;7.35;1.15;;;11.80;99.90;;;;;;5107980;28;20051;-57
2023/03/30 09:58:13;;;;;;;9.90;1.48;;;11.80;99.90;;;;;;5101372;28;20036;-59
2023/03/30 10:00:41;;;;;;;7.00;1.50;;;11.90;99.90;;;;;;5104654;28;20050;-57
2023/03/30 10:03:19;;;;;;;5.38;0.95;;;12.00;99.90;;;;;;5107367;28;20062;-57
2023/03/30 10:06:04;;;;;;;14.05;1.13;;;12.10;99.90;;;;;;5085783;28;20060;-57
2023/03/30 10:08:48;;;;;;;7.18;1.08;;;12.20;99.90;;;;;;5088977;28;20036;-57
2023/03/30 10:11:49;;;;;;;15.95;3.38;;;12.20;99.90;;;;;;5107085;28;20387;-57
2023/03/30 10:14:36;;;;;;;13.93;1.60;;;12.30;99.90;;;;;;5057634;28;20040;-58
2023/03/30 10:17:05;;;;;;;13.23;2.90;;;12.40;99.90;;;;;;5091211;28;20494;-60
2023/03/30 10:19:34;;;;;;;9.55;1.67;;;12.60;99.90;;;;;;5102183;28;20039;-64
2023/03/30 10:22:18;;;;;;;13.10;2.05;;;12.60;99.90;;;;;;5102926;28;20056;-62
2023/03/30 10:24:55;;;;;;;12.55;2.88;;;12.60;99.90;;;;;;5108982;28;20059;-61
2023/03/30 10:27:33;;;;;;;16.30;2.55;;;12.60;99.90;;;;;;5111169;28;20051;-62
2023/03/30 10:30:10;;;;;;;17.90;4.20;;;12.50;99.90;;;;;;5105232;28;20079;-55
2023/03/30 10:32:43;;;;;;;14.15;1.92;;;12.50;99.90;;;;;;5091883;28;20518;-60
2023/03/30 10:35:16;;;;;;;9.93;2.20;;;12.50;99.90;;;;;;5109508;28;20048;-57
2023/03/30 10:37:46;;;;;;;10.65;2.00;;;12.50;99.90;;;;;;5109501;28;20051;-57
2023/03/30 10:40:33;;;;;;;12.32;2.17;;;12.40;99.90;;;;;;5107942;28;20035;-57
2023/03/30 10:43:02;;;;;;;13.75;2.53;;;12.40;99.90;;;;;;5094321;28;20048;-57
2023/03/30 10:45:52;;;;;;;12.10;1.65;;;12.30;99.90;;;;;;5090315;28;20044;-60
2023/03/30 10:48:38;;;;;;;15.43;3.22;;;11.90;99.90;;;;;;5099450;28;20051;-61
2023/03/30 10:51:33;;;;;;;7.85;2.13;;;12.30;99.90;;;;;;5099591;28;20048;-62
2023/03/30 10:54:19;;;;;;;11.85;1.63;;;12.50;99.90;;;;;;5108546;28;20044;-63
2023/03/30 10:56:52;;;;;;;12.70;2.33;;;12.60;99.90;;;;;;5092189;28;20348;-59
2023/03/30 10:59:40;;;;;;;14.20;2.40;;;12.70;99.90;;;;;;5109787;28;20039;-65
2023/03/30 11:02:17;;;;;;;6.20;1.35;;;12.80;99.90;;;;;;5093318;28;20479;-64
2023/03/30 11:04:47;;;;;;;17.90;2.38;;;12.90;99.90;;;;;;5107096;28;20046;-63
2023/03/30 11:07:45;;;;;;;14.38;1.50;;;12.90;99.90;;;;;;5108154;28;20050;-64
2023/03/30 11:10:28;;;;;;;10.93;1.50;;;12.90;99.90;;;;;;5102184;28;20110;-59
2023/03/30 11:13:23;;;;;;;7.68;1.83;;;13.00;99.90;;;;;;5091503;28;20502;-65
2023/03/30 11:15:56;;;;;;;11.10;1.65;;;13.00;99.90;;;;;;5105198;28;20391;-64
2023/03/30 11:18:42;;;;;;;12.57;1.55;;;13.00;99.90;;;;;;5097933;28;20055;-60
2023/03/30 11:21:29;;;;;;;9.93;1.58;;;13.00;99.90;;;;;;5102793;28;20052;-63
2023/03/30 11:24:31;;;;;;;13.20;1.33;;;13.00;99.90;;;;;;5103933;28;20040;-63
2023/03/30 11:27:29;;;;;;;12.43;1.55;;;13.10;99.90;;;;;;5103264;28;20047;-64
2023/03/30 11:30:16;;;;;;;6.32;1.02;;;13.00;99.90;;;;;;5109795;28;20044;-57
2023/03/30 11:33:28;;;;;;;7.30;1.17;;;13.00;99.90;;;;;;5107428;28;20056;-58
2023/03/30 11:36:09;;;;;;;8.45;1.20;;;13.00;99.90;;;;;;5076830;28;20405;-59
2023/03/30 11:38:59;;;;;;;12.13;1.90;;;13.20;99.90;;;;;;5107298;28;20395;-57
2023/03/30 11:41:30;;;;;;;11.07;1.52;;;13.20;99.90;;;;;;5074864;28;20059;-58
2023/03/30 11:43:58;;;;;;;12.25;1.30;;;13.40;99.90;;;;;;5087933;28;20039;-57
2023/03/30 11:47:04;;;;;;;10.05;1.65;;;13.60;99.90;;;;;;5100918;28;20072;-59
2023/03/30 11:49:43;;;;;;;9.70;1.77;;;13.70;99.90;;;;;;5108422;28;20061;-56
2023/03/30 11:52:51;;;;;;;9.43;1.73;;;13.90;99.90;;;;;;5103959;28;20051;-57
2023/03/30 11:55:28;;;;;;;7.90;1.30;;;13.90;99.90;;;;;;5075860;28;20514;-56
2023/03/30 11:58:13;;;;;;;11.27;1.90;;;14.30;99.90;;;;;;5108451;28;20052;-58
2023/03/30 12:00:57;;;;;;;8.70;1.52;;;14.80;99.90;;;;;;5097683;28;20054;-56
2023/03/30 12:03:33;;;;;;;14.73;2.65;;;15.10;99.90;;;;;;5097075;28;20043;-59
2023/03/30 12:06:15;;;;;;;12.00;2.42;;;15.70;99.90;;;;;;5101790;28;20052;-58
2023/03/30 12:08:51;;;;;;;16.02;1.83;;;15.80;99.90;;;;;;5103970;28;20475;-58
2023/03/30 12:11:47;;;;;;;12.60;2.45;;;16.00;99.90;;;;;;5107997;28;20055;-58
2023/03/30 12:14:38;;;;;;;14.80;2.05;;;16.20;99.90;;;;;;5108716;28;20047;-59
2023/03/30 12:17:42;;;;;;;15.88;2.03;;;16.20;99.90;;;;;;5098258;28;20063;-60
2023/03/30 12:20:28;;;;;;;11.82;2.10;;;16.40;99.90;;;;;;5109004;28;20040;-58
2023/03/30 12:23:34;;;;;;;19.10;2.92;;;16.80;99.90;;;;;;5107819;28;20032;-59
2023/03/30 12:26:02;;;;;;;22.08;2.17;;;16.80;99.90;;;;;;5093956;28;20043;-58
2023/03/30 12:28:52;;;;;;;17.55;2.47;;;16.80;99.90;;;;;;5108101;28;20051;-58
2023/03/30 12:31:57;;;;;;;9.80;1.70;;;16.60;99.90;;;;;;5108718;28;20054;-58
2023/03/30 12:34:32;;;;;;;13.65;1.67;;;15.90;99.90;;;;;;5092576;28;20062;-60
2023/03/30 12:37:11;;;;;;;21.75;2.40;;;15.80;99.90;;;;;;5096082;28;20054;-58
2023/03/30 12:39:47;;;;;;;;;;;15.50;99.90;;;;;;5097294;28;20083;-59
2023/03/30 12:42:34;;;;;;;11.55;1.63;;;15.40;99.90;;;;;;5088625;28;19924;-58
2023/03/30 12:45:45;;;;;;;19.90;2.30;;;15.60;99.90;;;;;;5107645;28;20055;-58
2023/03/30 12:48:16;;;;;;;16.90;2.22;;;15.90;99.90;;;;;;5096942;28;20047;-60
2023/03/30 12:51:31;;;;;;;14.93;2.55;;;16.30;99.90;;;;;;5106379;28;20051;-58
2023/03/30 12:54:26;;;;;;;18.30;2.47;;;16.50;99.90;;;;;;5010930;28;20086;-59
2023/03/30 12:57:11;;;;;;;13.25;2.10;;;16.50;99.90;;;;;;5099966;28;20039;-61
2023/03/30 13:00:36;;;;;;;10.15;1.85;;;17.00;99.90;;;;;;5097947;28;20063;-59
2023/03/30 13:03:12;;;;;;;8.63;2.03;;;17.70;99.90;;;;;;5011605;28;20053;-62
2023/03/30 13:05:43;;;;;;;10.32;1.50;;;17.80;99.90;;;;;;5017283;28;20053;-60
2023/03/30 13:08:38;;;;;;;16.38;2.28;;;17.80;99.90;;;;;;5071617;28;20059;-63
2023/03/30 13:11:17;;;;;;;15.90;2.67;;;17.30;99.90;;;;;;5100063;28;20659;-59
2023/03/30 13:13:55;;;;;;;25.67;3.13;;;17.10;99.90;;;;;;5092687;28;20059;-57
2023/03/30 13:16:51;;;;;;;13.00;1.85;;;16.80;99.90;;;;;;5075337;28;20514;-62
2023/03/30 13:19:36;;;;;;;11.07;1.88;;;16.70;99.90;;;;;;5103888;28;20051;-59
2023/03/30 13:22:12;;;;;;;10.18;1.58;;;16.30;99.90;;;;;;5071242;28;20040;-59
2023/03/30 13:25:21;;;;;;;7.38;1.58;;;16.30;99.90;;;;;;5102568;28;20044;-62
2023/03/30 13:27:56;;;;;;;6.60;1.52;;;16.20;99.90;;;;;;5104367;28;20048;-60
2023/03/30 13:30:28;;;;;;;9.85;1.42;;;16.90;99.90;;;;;;5100100;28;20058;-62
2023/03/30 13:33:17;;;;;;;12.77;2.00;;;16.90;99.90;;;;;;5095814;28;20047;-61
2023/03/30 13:36:00;;;;;;;13.65;2.08;;;17.60;99.90;;;;;;5100102;28;20417;-61
2023/03/30 13:38:39;;;;;;;13.30;1.83;;;17.70;99.90;;;;;;5099057;28;20035;-63
2023/03/30 13:41:18;;;;;;;13.65;2.50;;;17.70;99.90;;;;;;5094993;28;20044;-61
2023/03/30 13:44:07;;;;;;;11.43;2.38;;;17.70;99.90;;;;;;5103012;28;20044;-60
2023/03/30 13:46:46;;;;;;;14.80;2.33;;;17.50;99.90;;;;;;5108648;28;20387;-59
2023/03/30 13:49:16;;;;;;;9.93;1.70;;;17.30;99.90;;;;;;5106986;28;20036;-60
2023/03/30 13:51:45;;;;;;;11.48;1.70;;;17.20;99.90;;;;;;5108421;28;20067;-63